Time;durP1;ratioP1;P1;durP2;ratioP2;P2;SDS_P1;SDS_P2;PMS_P1;PMS_P2;Temp;Humidity;BMP_temperature;BMP_pressure;BME280_temperature;BME280_humidity;BME280_pressure;Samples;Min_cycle;Max_cycle;Signal;HPM_P1;HPM_P2
2021/09/15 00:01:31;;;;;;;15.40;9.73;;;;;;;18.46;100.00;99251.66;1650871;86;22057;-72
2021/09/15 00:04:00;;;;;;;13.08;9.78;;;;;;;18.42;100.00;99250.00;1649284;86;21416;-71
2021/09/15 00:06:30;;;;;;;14.70;9.08;;;;;;;18.40;100.00;99251.39;1655817;86;21447;-72
2021/09/15 00:08:58;;;;;;;17.17;9.63;;;;;;;18.39;100.00;99250.11;1656921;86;20929;-72
2021/09/15 00:11:28;;;;;;;12.88;8.70;;;;;;;18.37;100.00;99254.17;1652636;86;21516;-73
2021/09/15 00:14:05;;;;;;;13.85;8.48;;;;;;;18.37;100.00;99253.30;1649507;86;21439;-72
2021/09/15 00:16:30;;;;;;;13.60;8.33;;;;;;;18.35;100.00;99252.48;1647898;86;21384;-73
2021/09/15 00:19:00;;;;;;;13.68;8.75;;;;;;;18.37;100.00;99257.31;1653375;86;21421;-72
2021/09/15 00:21:30;;;;;;;12.98;8.83;;;;;;;18.37;100.00;99254.64;1653662;85;21221;-72
2021/09/15 00:24:01;;;;;;;13.75;8.63;;;;;;;18.36;100.00;99256.44;1652355;85;21416;-73
2021/09/15 00:26:32;;;;;;;11.40;8.05;;;;;;;18.34;100.00;99246.73;1649782;86;20911;-72
2021/09/15 00:29:01;;;;;;;11.83;8.45;;;;;;;18.31;100.00;99253.06;1644362;85;21408;-73
2021/09/15 00:31:33;;;;;;;12.47;8.70;;;;;;;18.29;100.00;99260.25;1654966;86;21419;-72
2021/09/15 00:34:07;;;;;;;14.38;8.08;;;;;;;18.27;100.00;99255.90;1652318;86;20911;-71
2021/09/15 00:36:39;;;;;;;11.12;8.18;;;;;;;18.24;100.00;99258.21;1653180;86;21448;-72
2021/09/15 00:39:13;;;;;;;12.75;8.38;;;;;;;18.19;100.00;99247.70;1652869;86;21047;-73
2021/09/15 00:41:42;;;;;;;13.58;8.18;;;;;;;18.16;100.00;99249.61;1651478;86;20908;-72
2021/09/15 00:44:10;;;;;;;14.33;8.28;;;;;;;18.11;100.00;99246.22;1652681;86;20888;-72
2021/09/15 00:46:42;;;;;;;11.70;8.68;;;;;;;18.07;100.00;99248.13;1653271;86;20908;-73
2021/09/15 00:49:16;;;;;;;10.93;8.73;;;;;;;18.03;100.00;99251.83;1652564;86;21423;-72
2021/09/15 00:52:03;;;;;;;13.15;8.78;;;;;;;17.98;100.00;99244.45;1645085;85;21110;-71
2021/09/15 00:54:28;;;;;;;10.93;8.03;;;;;;;17.94;100.00;99246.78;1651440;85;21532;-73
2021/09/15 00:56:57;;;;;;;12.15;8.05;;;;;;;17.87;100.00;99239.45;1637452;86;20978;-74
2021/09/15 00:59:29;;;;;;;11.57;7.95;;;;;;;17.84;100.00;99244.02;1633706;85;20992;-74
2021/09/15 01:01:57;;;;;;;11.40;7.85;;;;;;;17.78;100.00;99239.77;1652998;86;20936;-71
2021/09/15 01:04:27;;;;;;;14.25;8.13;;;;;;;17.76;100.00;99243.41;1654432;85;21088;-73
2021/09/15 01:06:58;;;;;;;13.25;7.78;;;;;;;17.73;100.00;99247.52;1652311;86;21454;-72
2021/09/15 01:09:28;;;;;;;9.68;7.28;;;;;;;17.73;100.00;99250.18;1654033;84;20952;-72
2021/09/15 01:11:59;;;;;;;9.85;6.67;;;;;;;17.70;100.00;99252.48;1650213;86;20939;-74
2021/09/15 01:14:32;;;;;;;8.63;6.85;;;;;;;17.67;100.00;99251.72;1644359;86;20888;-73
2021/09/15 01:17:11;;;;;;;11.08;6.53;;;;;;;17.62;100.00;99253.17;1657680;85;21073;-74
2021/09/15 01:19:51;;;;;;;13.43;6.53;;;;;;;17.58;100.00;99255.53;1636076;86;21427;-73
2021/09/15 01:22:29;;;;;;;9.83;6.83;;;;;;;17.52;100.00;99256.60;1656678;86;20984;-73
2021/09/15 01:25:18;;;;;;;10.20;6.55;;;;;;;17.47;100.00;99257.18;1657779;85;20979;-73
2021/09/15 01:27:49;;;;;;;11.15;6.60;;;;;;;17.42;100.00;99263.59;1650069;86;20939;-73
2021/09/15 01:30:26;;;;;;;9.80;6.95;;;;;;;17.37;100.00;99257.53;1653975;86;21126;-71
2021/09/15 01:32:57;;;;;;;8.78;6.72;;;;;;;17.32;100.00;99255.01;1652063;86;21460;-73
2021/09/15 01:35:30;;;;;;;9.13;6.75;;;;;;;17.26;100.00;99256.53;1648666;84;21580;-73
2021/09/15 01:38:00;;;;;;;15.78;7.95;;;;;;;17.20;100.00;99254.94;1648901;85;21458;-73
2021/09/15 01:40:32;;;;;;;11.07;7.27;;;;;;;17.14;100.00;99259.13;1654916;86;20928;-72
2021/09/15 01:43:02;;;;;;;9.28;6.40;;;;;;;17.08;100.00;99260.64;1656011;86;21434;-72
2021/09/15 01:45:33;;;;;;;8.43;6.03;;;;;;;17.03;100.00;99260.34;1638928;86;21466;-72
2021/09/15 01:48:06;;;;;;;13.45;6.22;;;;;;;16.98;100.00;99260.02;1635450;86;21351;-72
2021/09/15 01:50:36;;;;;;;10.35;7.25;;;;;;;16.96;100.00;99263.66;1645933;86;21420;-73
2021/09/15 01:53:09;;;;;;;11.80;7.70;;;;;;;16.97;100.00;99262.27;1647131;86;21401;-73
2021/09/15 01:55:38;;;;;;;11.15;8.63;;;;;;;16.97;100.00;99257.41;1648010;87;21196;-73
2021/09/15 01:58:24;;;;;;;11.48;8.20;;;;;;;16.97;100.00;99258.73;1645398;86;21468;-73
2021/09/15 02:01:07;;;;;;;12.15;8.15;;;;;;;16.96;100.00;99260.98;1634765;86;20963;-73
2021/09/15 02:03:43;;;;;;;12.75;8.70;;;;;;;16.95;100.00;99261.91;1646621;85;21441;-73
2021/09/15 02:06:23;;;;;;;12.75;8.63;;;;;;;16.94;100.00;99261.50;1641914;86;21433;-72
2021/09/15 02:08:55;;;;;;;15.18;8.40;;;;;;;16.94;100.00;99261.50;1648020;87;20898;-72
2021/09/15 02:11:27;;;;;;;11.73;8.55;;;;;;;16.97;100.00;99270.27;1648533;86;21388;-73
2021/09/15 02:13:55;;;;;;;12.55;8.23;;;;;;;16.98;100.00;99269.81;1649000;86;20941;-73
2021/09/15 02:16:26;;;;;;;18.62;9.25;;;;;;;16.97;100.00;99272.94;1648389;86;20909;-72
2021/09/15 02:18:56;;;;;;;14.80;8.68;;;;;;;16.97;100.00;99265.40;1650821;86;21405;-73
2021/09/15 02:21:32;;;;;;;14.13;8.63;;;;;;;16.97;100.00;99272.94;1631515;86;21393;-72
2021/09/15 02:24:06;;;;;;;14.03;8.33;;;;;;;16.96;100.00;99275.64;1643233;86;20920;-72
2021/09/15 02:26:38;;;;;;;13.53;8.65;;;;;;;16.97;100.00;99268.94;1647886;86;21440;-71
2021/09/15 02:29:12;;;;;;;16.15;8.20;;;;;;;16.99;100.00;99267.56;1644579;86;20956;-72
2021/09/15 02:31:46;;;;;;;15.18;8.30;;;;;;;17.00;100.00;99270.64;1655755;85;20989;-73
2021/09/15 02:34:35;;;;;;;15.18;8.88;;;;;;;16.99;100.00;99271.09;1657042;86;21935;-62
2021/09/15 02:37:23;;;;;;;16.48;8.25;;;;;;;16.97;100.00;99266.27;1623130;87;21534;-61
2021/09/15 02:40:11;;;;;;;13.48;8.58;;;;;;;16.96;100.00;99271.65;1649123;86;20984;-65
2021/09/15 02:42:40;;;;;;;11.45;8.50;;;;;;;16.94;100.00;99278.81;1635958;86;21015;-65
2021/09/15 02:45:11;;;;;;;13.43;7.70;;;;;;;16.91;100.00;99276.24;1645376;85;21495;-63
2021/09/15 02:47:49;;;;;;;;;;;;;;;16.91;100.00;99279.78;1625420;86;21399;-64
2021/09/15 02:50:19;;;;;;;13.03;8.53;;;;;;;16.93;100.00;99281.94;1629727;85;20566;-65
2021/09/15 02:52:53;;;;;;;21.35;8.73;;;;;;;16.94;100.00;99286.81;1658367;85;21435;-60
2021/09/15 02:55:27;;;;;;;12.18;8.25;;;;;;;16.94;100.00;99285.02;1651822;85;22130;-64
2021/09/15 02:57:59;;;;;;;12.65;8.73;;;;;;;16.92;100.00;99284.19;1664220;84;21464;-65
2021/09/15 03:00:30;;;;;;;14.23;8.83;;;;;;;16.91;100.00;99283.78;1665847;84;21097;-64
2021/09/15 03:03:15;;;;;;;14.75;9.10;;;;;;;16.89;100.00;99282.95;1665448;84;20903;-66
2021/09/15 03:05:56;;;;;;;15.80;8.65;;;;;;;16.88;100.00;99290.53;1651487;85;21474;-65
2021/09/15 03:08:29;;;;;;;14.90;8.65;;;;;;;16.87;100.00;99283.91;1662860;84;21497;-65
2021/09/15 03:11:00;;;;;;;16.67;8.10;;;;;;;16.85;100.00;99287.08;1664362;85;21434;-66
2021/09/15 03:13:33;;;;;;;14.65;8.25;;;;;;;16.85;100.00;99289.28;1664272;85;20864;-66
2021/09/15 03:16:01;;;;;;;26.75;8.93;;;;;;;16.84;100.00;99291.53;1666241;86;20861;-65
2021/09/15 03:18:31;;;;;;;29.57;9.33;;;;;;;16.80;100.00;99290.34;1664836;86;21412;-66
2021/09/15 03:21:04;;;;;;;13.98;8.10;;;;;;;16.77;100.00;99289.09;1664488;84;21467;-64
2021/09/15 03:23:36;;;;;;;11.28;7.55;;;;;;;16.74;100.00;99291.39;1666362;84;20899;-64
2021/09/15 03:26:05;;;;;;;15.48;8.03;;;;;;;16.72;100.00;99293.23;1649902;86;21275;-65
2021/09/15 03:28:35;;;;;;;25.60;8.28;;;;;;;16.68;100.00;99291.11;1638843;86;20961;-65
2021/09/15 03:31:02;;;;;;;17.42;7.22;;;;;;;16.66;100.00;99295.61;1648880;86;21450;-63
2021/09/15 03:33:30;;;;;;;15.15;8.10;;;;;;;16.65;100.00;99295.62;1651093;85;20971;-65
2021/09/15 03:36:02;;;;;;;13.22;8.10;;;;;;;16.65;100.00;99305.84;1649258;86;20922;-68
2021/09/15 03:38:32;;;;;;;15.68;8.10;;;;;;;16.65;100.00;99302.28;1620151;87;21398;-64
2021/09/15 03:41:03;;;;;;;15.00;7.85;;;;;;;16.64;100.00;99307.19;1596256;88;21399;-62
2021/09/15 03:43:31;;;;;;;13.13;7.70;;;;;;;16.63;100.00;99308.11;1646242;86;20963;-67
2021/09/15 03:46:04;;;;;;;20.12;8.53;;;;;;;16.61;100.00;99308.61;1643091;85;20920;-65
2021/09/15 03:48:30;;;;;;;14.85;8.00;;;;;;;16.57;100.00;99308.28;1616042;88;20984;-67
2021/09/15 03:50:59;;;;;;;10.50;7.80;;;;;;;16.57;100.00;99308.28;1628400;86;21192;-73
2021/09/15 03:53:27;;;;;;;15.03;7.22;;;;;;;16.57;100.00;99308.28;1642692;86;20945;-71
2021/09/15 03:55:56;;;;;;;18.92;8.08;;;;;;;16.61;100.00;99312.14;1647586;86;20962;-72
2021/09/15 03:58:27;;;;;;;;;;;;;;;16.65;100.00;99312.93;1647996;85;20973;-72
2021/09/15 04:01:05;;;;;;;12.68;7.80;;;;;;;16.65;100.00;99313.84;1626356;86;20135;-73
2021/09/15 04:03:31;;;;;;;11.65;7.45;;;;;;;16.66;100.00;99316.91;1647321;86;21121;-72
2021/09/15 04:06:00;;;;;;;10.48;7.80;;;;;;;16.66;100.00;99316.91;1646805;86;20990;-72
2021/09/15 04:08:31;;;;;;;11.50;8.28;;;;;;;16.66;100.00;99316.91;1648029;86;20949;-74
2021/09/15 04:11:03;;;;;;;11.45;7.58;;;;;;;16.64;100.00;99320.50;1625610;87;20958;-72
2021/09/15 04:13:45;;;;;;;13.85;7.42;;;;;;;16.65;100.00;99323.16;1647549;86;20949;-71
2021/09/15 04:16:10;;;;;;;10.75;7.90;;;;;;;16.67;100.00;99321.33;1643141;85;22160;-71
2021/09/15 04:18:45;;;;;;;17.40;8.58;;;;;;;16.67;100.00;99327.98;1645115;85;20920;-71
2021/09/15 04:21:13;;;;;;;10.85;6.97;;;;;;;16.67;100.00;99329.78;1627518;86;20902;-72
2021/09/15 04:31:52;;;;;;;10.90;6.70;;;;;;;16.66;100.00;99345.34;1659324;86;21002;-72
2021/09/15 04:34:27;;;;;;;9.80;6.90;;;;;;;16.68;100.00;99344.38;1651633;85;21515;-71
2021/09/15 04:37:00;;;;;;;10.13;6.92;;;;;;;16.69;100.00;99347.92;1658566;84;21589;-73
2021/09/15 04:39:30;;;;;;;;;;;;;;;16.70;100.00;99348.33;1670270;84;20933;-73
2021/09/15 04:41:58;;;;;;;9.10;6.80;;;;;;;16.71;100.00;99353.20;1663534;84;21872;-73
2021/09/15 04:44:28;;;;;;;9.53;5.95;;;;;;;16.71;100.00;99351.88;1642398;84;21496;-73
2021/09/15 04:46:57;;;;;;;9.18;6.05;;;;;;;16.71;100.00;99356.73;1644465;85;21017;-73
2021/09/15 04:49:26;;;;;;;13.48;5.65;;;;;;;16.70;100.00;99355.45;1665959;84;20969;-73
2021/09/15 04:51:54;;;;;;;10.68;5.37;;;;;;;16.70;100.00;99360.78;1645557;85;20894;-73
2021/09/15 04:54:25;;;;;;;9.30;5.90;;;;;;;16.74;100.00;99371.77;1639219;85;21462;-72
2021/09/15 04:56:57;;;;;;;8.08;5.67;;;;;;;16.74;100.00;99371.77;1654019;85;21434;-72
2021/09/15 04:59:31;;;;;;;7.40;6.03;;;;;;;16.76;100.00;99367.27;1650541;85;21486;-73
2021/09/15 05:02:01;;;;;;;12.15;6.83;;;;;;;16.76;100.00;99365.94;1653270;85;20912;-73
2021/09/15 05:04:31;;;;;;;8.05;5.72;;;;;;;16.74;100.00;99367.31;1635368;86;21024;-73
2021/09/15 05:07:02;;;;;;;;;;;;;;;16.74;100.00;99373.97;1637822;85;21478;-72
2021/09/15 05:09:33;;;;;;;10.63;6.47;;;;;;;16.71;100.00;99371.39;1625294;86;20410;-73
2021/09/15 05:12:05;;;;;;;10.05;6.28;;;;;;;16.68;100.00;99377.67;1619909;88;20924;-73
2021/09/15 05:14:35;;;;;;;11.60;6.50;;;;;;;16.71;100.00;99378.05;1619574;87;28578;-73
2021/09/15 05:17:05;;;;;;;12.03;7.10;;;;;;;16.74;100.00;99383.30;1619843;87;20976;-73
2021/09/15 05:19:36;;;;;;;10.35;6.00;;;;;;;16.76;100.00;99380.59;1637101;86;22110;-73
2021/09/15 05:22:10;;;;;;;9.60;6.30;;;;;;;16.76;100.00;99390.78;1638667;86;20959;-74
2021/09/15 05:24:42;;;;;;;13.28;6.72;;;;;;;16.77;100.00;99400.98;1640248;86;20968;-74
2021/09/15 05:27:15;;;;;;;9.58;6.62;;;;;;;16.77;100.00;99403.64;1631354;86;20892;-73
2021/09/15 05:29:45;;;;;;;10.78;6.50;;;;;;;16.79;100.00;99406.69;1635397;86;20911;-73
2021/09/15 05:32:14;;;;;;;10.60;6.58;;;;;;;16.79;100.00;99408.02;1655458;85;21120;-72
2021/09/15 05:34:43;;;;;;;10.28;6.58;;;;;;;16.78;100.00;99402.27;1658945;86;20912;-75
2021/09/15 05:37:12;;;;;;;8.10;5.62;;;;;;;16.81;100.00;99406.19;1657952;85;20920;-73
2021/09/15 05:39:40;;;;;;;11.70;6.10;;;;;;;16.83;100.00;99410.14;1642508;86;20939;-73
2021/09/15 05:42:13;;;;;;;7.05;5.78;;;;;;;16.82;100.00;99411.05;1649508;85;21494;-72
2021/09/15 05:44:42;;;;;;;9.70;5.70;;;;;;;16.79;100.00;99411.14;1651377;85;21761;-71
2021/09/15 05:47:11;;;;;;;7.80;5.55;;;;;;;16.79;100.00;99411.14;1649668;85;21446;-72
2021/09/15 05:49:39;;;;;;;10.25;6.47;;;;;;;16.78;100.00;99418.72;1627532;86;20936;-72
2021/09/15 05:52:08;;;;;;;10.40;6.22;;;;;;;16.75;100.00;99417.01;1629172;86;21424;-72
2021/09/15 05:54:36;;;;;;;9.53;6.10;;;;;;;16.75;100.00;99417.01;1633874;86;20908;-71
2021/09/15 05:57:04;;;;;;;10.93;6.87;;;;;;;16.80;100.00;99418.22;1653220;86;21046;-72
2021/09/15 05:59:32;;;;;;;13.78;9.75;;;;;;;16.82;100.00;99422.59;1663820;85;21403;-72
2021/09/15 06:01:59;;;;;;;20.35;13.32;;;;;;;16.85;100.00;99418.97;1632562;86;20912;-72
2021/09/15 06:04:27;;;;;;;22.52;12.63;;;;;;;16.86;100.00;99419.38;1640368;86;20919;-73
2021/09/15 06:06:56;;;;;;;20.50;13.45;;;;;;;16.88;100.00;99418.88;1629386;86;21566;-72
2021/09/15 06:09:26;;;;;;;18.57;11.68;;;;;;;16.90;100.00;99414.38;1629565;85;21358;-73
2021/09/15 06:11:53;;;;;;;14.23;10.15;;;;;;;16.91;100.00;99414.34;1629810;86;21016;-73
2021/09/15 06:14:22;;;;;;;17.10;10.50;;;;;;;16.95;100.00;99416.46;1630035;86;20932;-72
2021/09/15 06:16:50;;;;;;;13.30;9.28;;;;;;;16.98;100.00;99421.25;1664921;84;20865;-72
2021/09/15 06:19:18;;;;;;;14.50;8.60;;;;;;;17.04;100.00;99419.36;1669339;84;20960;-71
2021/09/15 06:22:05;;;;;;;15.45;8.73;;;;;;;17.08;100.00;99417.02;1669107;84;20953;-72
2021/09/15 06:24:58;;;;;;;13.68;8.80;;;;;;;17.13;100.00;99417.31;1665096;84;20870;-72
2021/09/15 06:27:23;;;;;;;12.20;7.00;;;;;;;17.13;100.00;99417.31;1677141;85;20905;-72
2021/09/15 06:29:51;;;;;;;8.38;6.42;;;;;;;17.20;100.00;99426.88;1645602;87;21490;-72
2021/09/15 06:32:20;;;;;;;9.18;6.40;;;;;;;17.24;100.00;99431.20;1645498;86;21455;-72
2021/09/15 06:34:48;;;;;;;9.60;5.47;;;;;;;17.28;100.00;99424.86;1645612;86;21481;-73
2021/09/15 06:37:16;;;;;;;7.55;5.25;;;;;;;17.34;100.00;99425.15;1645403;86;21446;-73
2021/09/15 06:39:44;;;;;;;8.60;5.80;;;;;;;17.42;100.00;99423.59;1645524;86;20924;-73
2021/09/15 06:42:12;;;;;;;10.80;6.40;;;;;;;17.51;100.00;99423.34;1678518;85;20874;-72
2021/09/15 06:44:41;;;;;;;14.28;6.65;;;;;;;17.58;100.00;99433.78;1645548;86;20904;-71
2021/09/15 06:47:08;;;;;;;11.73;6.22;;;;;;;17.65;100.00;99433.59;1676945;85;21121;-72
2021/09/15 06:49:35;;;;;;;7.78;5.55;;;;;;;17.68;100.00;99426.41;1645417;86;20908;-72
2021/09/15 06:52:04;;;;;;;13.08;6.42;;;;;;;17.73;100.00;99435.14;1645434;86;20916;-72
2021/09/15 06:54:31;;;;;;;12.85;6.35;;;;;;;17.78;100.00;99430.54;1678791;85;20925;-72
2021/09/15 06:56:59;;;;;;;16.90;6.35;;;;;;;17.85;100.00;99434.77;1678511;85;20997;-72
2021/09/15 06:59:26;;;;;;;12.58;6.55;;;;;;;17.93;100.00;99435.86;1678393;85;21162;-72
2021/09/15 07:01:56;;;;;;;10.60;5.33;;;;;;;17.99;100.00;99438.37;1678501;85;21377;-72
2021/09/15 07:04:27;;;;;;;40.50;7.47;;;;;;;18.05;100.00;99428.83;1678638;85;20914;-72
2021/09/15 07:06:57;;;;;;;13.58;6.10;;;;;;;18.15;100.00;99433.41;1644905;86;20924;-73
2021/09/15 07:09:25;;;;;;;19.55;6.67;;;;;;;18.20;100.00;99431.47;1675204;85;21519;-73
2021/09/15 07:11:54;;;;;;;19.17;6.55;;;;;;;18.25;100.00;99434.39;1644005;86;20940;-72
2021/09/15 07:14:21;;;;;;;13.60;6.30;;;;;;;18.33;100.00;99429.27;1644085;85;20968;-73
2021/09/15 07:16:50;;;;;;;10.85;6.72;;;;;;;18.40;100.00;99431.67;1676182;85;20878;-73
2021/09/15 07:19:18;;;;;;;23.20;6.55;;;;;;;18.48;100.00;99435.00;1677861;85;21468;-73
2021/09/15 07:21:47;;;;;;;9.65;6.53;;;;;;;18.54;100.00;99432.58;1678526;85;20974;-71
2021/09/15 07:24:15;;;;;;;12.35;5.87;;;;;;;18.59;100.00;99427.08;1678752;85;21143;-72
2021/09/15 07:26:42;;;;;;;9.30;6.70;;;;;;;18.61;100.00;99431.91;1668863;84;21419;-72
2021/09/15 07:29:10;;;;;;;17.45;7.03;;;;;;;18.70;100.00;99431.16;1651908;85;20948;-72
2021/09/15 07:31:38;;;;;;;12.90;7.17;;;;;;;18.83;100.00;99440.49;1651854;85;20908;-64
2021/09/15 07:34:06;;;;;;;12.05;7.12;;;;;;;18.96;100.00;99426.73;1651205;85;20971;-65
2021/09/15 07:36:34;;;;;;;13.05;6.75;;;;;;;19.11;100.00;99428.84;1650684;85;21549;-64
2021/09/15 07:39:03;;;;;;;9.85;5.97;;;;;;;19.26;100.00;99430.95;1651508;85;21077;-63
2021/09/15 07:41:30;;;;;;;7.72;5.62;;;;;;;19.41;100.00;99429.55;1651295;85;20900;-64
2021/09/15 07:43:58;;;;;;;7.80;5.40;;;;;;;19.56;100.00;99429.45;1650875;85;20936;-64
2021/09/15 07:46:26;;;;;;;9.60;5.42;;;;;;;19.63;100.00;99423.81;1651174;85;20943;-64
2021/09/15 07:48:55;;;;;;;5.65;4.75;;;;;;;19.67;100.00;99417.41;1657071;85;20927;-64
2021/09/15 07:51:22;;;;;;;12.03;4.95;;;;;;;19.78;100.00;99422.34;1658896;85;20933;-63
2021/09/15 07:53:51;;;;;;;29.80;6.17;;;;;;;19.89;100.00;99417.47;1647049;86;20927;-63
2021/09/15 07:56:19;;;;;;;66.85;11.30;;;;;;;20.04;100.00;99415.52;1669849;85;20925;-64
2021/09/15 07:58:47;;;;;;;17.00;6.00;;;;;;;20.19;100.00;99414.02;1675021;85;20945;-64
2021/09/15 08:01:15;;;;;;;14.65;5.50;;;;;;;20.31;100.00;99410.83;1669249;84;21126;-65
2021/09/15 08:03:43;;;;;;;97.62;10.65;;;;;;;20.47;100.00;99408.91;1663040;84;21420;-65
2021/09/15 08:06:12;;;;;;;11.28;5.55;;;;;;;20.63;100.00;99410.88;1636310;86;20961;-64
2021/09/15 08:08:39;;;;;;;50.20;9.23;;;;;;;20.82;100.00;99414.13;1639420;85;21466;-65
2021/09/15 08:11:09;;;;;;;9.20;4.40;;;;;;;20.94;100.00;99409.09;1627149;86;21020;-65
2021/09/15 08:13:37;;;;;;;8.88;4.42;;;;;;;21.07;100.00;99409.42;1590263;89;21110;-64
2021/09/15 08:16:07;;;;;;;9.85;5.05;;;;;;;21.14;100.00;99402.84;1632235;88;20950;-63
2021/09/15 08:18:35;;;;;;;13.32;5.12;;;;;;;21.20;100.00;99407.92;1632017;88;21428;-64
2021/09/15 08:21:02;;;;;;;60.92;7.72;;;;;;;21.31;100.00;99398.98;1632300;88;20984;-63
2021/09/15 08:23:30;;;;;;;16.07;5.37;;;;;;;21.48;100.00;99402.70;1632144;88;20997;-65
2021/09/15 08:25:58;;;;;;;16.60;4.87;;;;;;;21.65;100.00;99397.41;1632278;88;21929;-64
2021/09/15 08:28:25;;;;;;;19.80;5.28;;;;;;;21.85;100.00;99406.75;1631955;88;20925;-65
2021/09/15 08:30:53;;;;;;;25.12;5.90;;;;;;;22.03;100.00;99402.34;1632289;88;20893;-64
2021/09/15 08:33:21;;;;;;;27.55;6.08;;;;;;;22.20;100.00;99409.09;1632049;88;21029;-65
2021/09/15 08:35:48;;;;;;;47.75;8.05;;;;;;;22.35;100.00;99402.59;1632266;88;20974;-65
2021/09/15 08:38:16;;;;;;;38.48;5.75;;;;;;;22.50;100.00;99397.78;1632012;88;21113;-65
2021/09/15 08:40:43;;;;;;;22.02;5.78;;;;;;;22.64;100.00;99400.63;1632265;88;20881;-65
2021/09/15 08:43:11;;;;;;;30.68;6.72;;;;;;;22.82;100.00;99405.59;1632026;88;20972;-65
2021/09/15 08:45:38;;;;;;;23.55;6.17;;;;;;;22.92;100.00;99396.97;1632213;88;21004;-65
2021/09/15 08:48:06;;;;;;;21.82;5.53;;;;;;;22.99;100.00;99392.13;1632083;88;21433;-65
2021/09/15 08:50:33;;;;;;;24.18;5.45;;;;;;;23.16;100.00;99396.61;1612156;88;21089;-65
2021/09/15 08:53:00;;;;;;;23.00;5.67;;;;;;;23.25;100.00;99398.84;1631937;88;21459;-64
2021/09/15 08:55:29;;;;;;;31.15;6.10;;;;;;;23.32;100.00;99398.03;1632021;87;33676;-64
2021/09/15 08:57:57;;;;;;;78.35;7.87;;;;;;;23.35;100.00;99400.56;1633685;86;20943;-64
2021/09/15 09:00:26;;;;;;;23.87;5.12;;;;;;;23.38;100.00;99397.70;1658355;86;21458;-64
2021/09/15 09:02:53;;;;;;;28.20;5.37;;;;;;;23.45;100.00;99394.59;1658351;85;21799;-65
2021/09/15 09:05:21;;;;;;;17.15;4.67;;;;;;;23.45;100.00;99390.55;1658308;85;21466;-65
2021/09/15 09:07:49;;;;;;;36.70;5.95;;;;;;;23.40;99.80;99398.01;1658372;85;21500;-64
2021/09/15 09:10:18;;;;;;;18.62;4.83;;;;;;;23.29;98.36;99396.85;1658379;85;20923;-64
2021/09/15 09:12:46;;;;;;;16.23;6.37;;;;;;;23.27;98.30;99394.72;1640039;86;21446;-64
2021/09/15 09:15:25;;;;;;;13.40;5.97;;;;;;;23.30;97.86;99396.77;1658324;85;21107;-63
2021/09/15 09:18:00;;;;;;;10.20;4.03;;;;;;;23.35;98.24;99389.31;1658439;86;20925;-64
2021/09/15 09:20:35;;;;;;;8.05;3.08;;;;;;;23.40;98.23;99398.48;1658355;85;20919;-63
2021/09/15 09:23:14;;;;;;;7.58;3.58;;;;;;;23.43;98.54;99394.28;1658570;85;20928;-64
2021/09/15 09:25:48;;;;;;;10.15;3.37;;;;;;;23.46;98.64;99390.07;1658437;85;21516;-64
2021/09/15 09:28:21;;;;;;;13.55;3.10;;;;;;;23.50;98.42;99388.47;1632959;86;21104;-63
2021/09/15 09:30:51;;;;;;;5.65;3.00;;;;;;;23.52;95.80;99390.60;1656733;85;20864;-63
2021/09/15 09:33:19;;;;;;;9.75;3.83;;;;;;;23.53;95.99;99387.43;1656877;85;20933;-63
2021/09/15 09:35:53;;;;;;;9.73;3.95;;;;;;;23.50;93.48;99380.39;1656779;85;20985;-63
2021/09/15 09:38:31;;;;;;;10.08;3.30;;;;;;;23.46;94.95;99380.17;1656911;85;20923;-63
2021/09/15 09:41:20;;;;;;;10.85;3.42;;;;;;;23.48;93.30;99372.01;1654717;85;21387;-63
2021/09/15 09:43:52;;;;;;;9.03;3.00;;;;;;;23.50;93.39;99377.70;1656758;86;20884;-64
2021/09/15 09:46:30;;;;;;;76.17;5.35;;;;;;;23.55;93.18;99371.62;1656861;85;21412;-63
2021/09/15 09:49:03;;;;;;;5.72;2.37;;;;;;;23.64;93.62;99372.92;1656781;85;20931;-63
2021/09/15 09:51:39;;;;;;;4.95;2.30;;;;;;;23.76;94.24;99366.88;1638762;85;20888;-63
2021/09/15 09:54:20;;;;;;;5.80;2.30;;;;;;;23.88;94.75;99367.14;1655982;85;21112;-63
2021/09/15 09:56:50;;;;;;;4.72;2.33;;;;;;;24.00;92.21;99370.00;1654447;85;20961;-63
2021/09/15 09:59:19;;;;;;;6.60;2.40;;;;;;;24.14;92.44;99362.49;1625908;86;21042;-63
2021/09/15 10:01:49;;;;;;;6.28;2.20;;;;;;;24.29;89.14;99361.63;1651500;86;21042;-63
2021/09/15 10:04:17;;;;;;;4.83;2.05;;;;;;;24.46;86.48;99366.89;1651128;86;21517;-64
2021/09/15 10:06:45;;;;;;;5.12;1.90;;;;;;;24.63;85.75;99356.95;1651083;86;21107;-63
2021/09/15 10:09:14;;;;;;;3.42;2.10;;;;;;;24.75;82.19;99354.38;1634905;86;20942;-66
2021/09/15 10:11:43;;;;;;;2.62;1.77;;;;;;;24.78;79.09;99354.67;1654605;86;20973;-64
2021/09/15 10:14:17;;;;;;;4.08;2.00;;;;;;;24.78;76.13;99348.79;1649373;86;20966;-63
2021/09/15 10:16:50;;;;;;;5.08;1.90;;;;;;;24.86;76.35;99348.80;1655532;85;21361;-63
2021/09/15 10:19:18;;;;;;;3.25;2.20;;;;;;;24.99;75.73;99347.98;1655823;85;21090;-63
2021/09/15 10:21:58;;;;;;;3.50;1.90;;;;;;;25.16;74.13;99342.05;1636566;86;20942;-63
2021/09/15 10:25:01;;;;;;;3.58;1.80;;;;;;;25.31;71.79;99339.24;1655496;85;21382;-63
2021/09/15 10:27:30;;;;;;;1.93;1.77;;;;;;;25.50;70.29;99330.83;1656754;85;20951;-63
2021/09/15 10:30:10;;;;;;;30.37;3.92;;;;;;;25.64;66.79;99330.83;1655379;85;20981;-63
2021/09/15 10:32:39;;;;;;;6.55;1.87;;;;;;;25.78;67.37;99335.85;1654230;86;21087;-64
2021/09/15 10:35:08;;;;;;;3.92;2.10;;;;;;;25.97;67.73;99326.91;1654382;86;20880;-63
2021/09/15 10:37:44;;;;;;;2.83;1.80;;;;;;;26.19;67.09;99325.02;1654242;86;20948;-62
2021/09/15 10:40:12;;;;;;;6.10;2.15;;;;;;;26.39;64.89;99319.16;1654454;86;20900;-64
2021/09/15 10:42:46;;;;;;;43.10;2.85;;;;;;;26.54;62.91;99318.14;1654251;85;21491;-63
2021/09/15 10:45:22;;;;;;;5.05;1.92;;;;;;;26.70;61.79;99316.59;1654468;86;21091;-63
2021/09/15 10:47:58;;;;;;;3.22;2.10;;;;;;;26.87;63.07;99310.86;1654156;86;20998;-62
2021/09/15 10:50:37;;;;;;;3.52;1.90;;;;;;;27.11;62.18;99318.28;1654488;86;20931;-62
2021/09/15 10:53:12;;;;;;;2.83;1.70;;;;;;;27.28;60.98;99309.81;1654214;85;20919;-63
2021/09/15 10:55:55;;;;;;;4.25;1.90;;;;;;;27.35;58.28;99308.38;1654503;86;21506;-63
2021/09/15 10:58:30;;;;;;;;;;;;;;;27.33;56.84;99313.53;1656581;85;21135;-63
2021/09/15 11:01:02;;;;;;;9.43;2.30;;;;;;;27.22;55.78;99305.70;1654123;86;20142;-63
2021/09/15 11:03:38;;;;;;;6.35;1.50;;;;;;;27.07;55.20;99305.45;1654167;85;20967;-63
2021/09/15 11:06:19;;;;;;;4.40;1.77;;;;;;;26.87;54.48;99304.09;1654123;85;20915;-63
2021/09/15 11:08:49;;;;;;;21.87;2.90;;;;;;;26.68;54.32;99300.95;1654282;85;20984;-63
2021/09/15 11:11:25;;;;;;;3.02;1.85;;;;;;;26.53;55.38;99299.30;1654380;85;21101;-63
2021/09/15 11:14:05;;;;;;;3.65;1.77;;;;;;;26.47;56.84;99297.86;1654089;86;21093;-63
2021/09/15 11:16:38;;;;;;;3.52;1.85;;;;;;;26.45;56.24;99291.69;1634586;86;20975;-63
2021/09/15 11:19:12;;;;;;;4.47;1.98;;;;;;;26.44;56.02;99290.44;1654032;86;20923;-63
2021/09/15 11:21:41;;;;;;;;;;;;;;;26.48;56.01;99291.97;1656860;85;21479;-63
2021/09/15 11:24:16;;;;;;;2.00;1.65;;;;;;;26.53;54.89;99284.43;1654160;86;21736;-62
2021/09/15 11:26:58;;;;;;;2.80;1.95;;;;;;;26.55;54.57;99292.81;1654305;86;20971;-63
2021/09/15 11:29:50;;;;;;;6.97;2.17;;;;;;;26.54;52.49;99281.61;1644041;85;21015;-63
2021/09/15 11:32:16;;;;;;;7.95;1.77;;;;;;;26.56;52.94;99280.16;1638838;85;21019;-61
2021/09/15 11:34:47;;;;;;;6.25;1.98;;;;;;;26.54;52.73;99278.05;1654920;85;21484;-61
2021/09/15 11:37:28;;;;;;;2.60;1.80;;;;;;;26.51;52.01;99279.61;1656377;85;21447;-58
2021/09/15 11:40:03;;;;;;;3.83;1.70;;;;;;;26.45;51.38;99274.59;1657141;85;21604;-62
2021/09/15 11:42:35;;;;;;;2.20;1.65;;;;;;;26.37;52.00;99270.20;1655882;85;21431;-62
2021/09/15 11:45:19;;;;;;;2.33;1.70;;;;;;;26.26;52.30;99272.26;1655189;85;21478;-62
2021/09/15 11:47:52;;;;;;;5.85;2.30;;;;;;;26.14;52.56;99271.26;1656122;85;20928;-61
2021/09/15 11:50:35;;;;;;;2.05;1.60;;;;;;;26.01;52.14;99267.63;1656753;85;21045;-61